createdAt,value
2018-11-12T00:01:48.747Z,10.20
2018-11-12T00:06:50.854Z,13.30
2018-11-12T00:11:53.046Z,9.50
2018-11-12T00:16:55.166Z,17.33
2018-11-12T00:21:57.339Z,14.40
2018-11-12T00:26:59.382Z,14.90
2018-11-12T00:32:01.523Z,13.23
2018-11-12T00:37:03.914Z,14.23
2018-11-12T00:42:06.051Z,13.83
2018-11-12T00:47:08.164Z,23.97
2018-11-12T00:52:10.283Z,18.97
2018-11-12T00:57:12.434Z,14.67
2018-11-12T01:02:14.559Z,24.17
2018-11-12T01:07:16.701Z,18.17
2018-11-12T01:12:18.893Z,17.40
2018-11-12T01:17:21.090Z,21.60
2018-11-12T01:22:23.206Z,17.60
2018-11-12T01:27:25.312Z,20.23
2018-11-12T01:32:27.478Z,15.53
2018-11-12T01:37:29.569Z,21.00
2018-11-12T01:42:31.842Z,20.20
2018-11-12T01:47:33.979Z,20.53
2018-11-12T01:52:36.085Z,18.50
2018-11-12T01:57:38.199Z,18.13
2018-11-12T02:02:40.718Z,15.60
2018-11-12T02:07:42.871Z,14.60
2018-11-12T02:12:44.982Z,17.27
2018-11-12T02:17:47.641Z,22.27
2018-11-12T02:22:50.182Z,21.00
2018-11-12T02:27:52.300Z,20.10
2018-11-12T02:32:54.401Z,18.30
2018-11-12T02:37:56.505Z,19.07
2018-11-12T02:42:58.628Z,18.63
2018-11-12T02:48:00.723Z,26.30
2018-11-12T02:53:02.839Z,23.17
2018-11-12T02:58:05.018Z,21.30
2018-11-12T03:03:07.154Z,21.20
2018-11-12T03:08:09.247Z,27.93
2018-11-12T03:13:11.372Z,28.90
2018-11-12T03:18:13.460Z,23.00
2018-11-12T03:23:15.594Z,20.60
2018-11-12T03:28:17.705Z,24.40
2018-11-12T03:33:19.813Z,15.43
2018-11-12T03:38:22.799Z,20.80
2018-11-12T03:43:24.943Z,22.53
2018-11-12T03:48:27.062Z,25.07
2018-11-12T03:53:29.175Z,19.80
2018-11-12T03:58:31.278Z,18.00
2018-11-12T04:03:33.405Z,24.10
2018-11-12T04:08:35.508Z,21.03
2018-11-12T04:13:37.616Z,30.57
2018-11-12T04:18:39.742Z,26.03
2018-11-12T04:23:41.845Z,26.53
2018-11-12T04:28:43.963Z,26.00
2018-11-12T04:33:46.095Z,24.50
2018-11-12T04:38:48.216Z,31.40
2018-11-12T04:43:50.423Z,29.03
2018-11-12T04:48:52.551Z,30.20
2018-11-12T04:53:54.812Z,28.37
2018-11-12T04:58:56.951Z,25.93
2018-11-12T05:03:59.098Z,29.67
2018-11-12T05:09:01.245Z,23.07
2018-11-12T05:14:03.458Z,22.73
2018-11-12T05:19:05.636Z,21.30
2018-11-12T05:24:07.799Z,24.90
2018-11-12T05:29:09.952Z,28.70
2018-11-12T05:34:12.039Z,25.80
2018-11-12T05:39:14.150Z,27.13
2018-11-12T05:44:19.574Z,21.17
2018-11-12T05:49:21.672Z,22.57
2018-11-12T05:54:23.836Z,25.70
2018-11-12T05:59:25.950Z,29.60
2018-11-12T06:04:28.338Z,27.33
2018-11-12T06:09:30.439Z,24.20
2018-11-12T06:14:32.538Z,29.17
2018-11-12T06:19:35.092Z,26.83
2018-11-12T06:24:37.182Z,28.10
2018-11-12T06:29:39.280Z,29.17
2018-11-12T06:34:41.366Z,26.10
2018-11-12T06:39:43.483Z,30.33
2018-11-12T06:44:45.633Z,29.17
2018-11-12T06:49:47.727Z,25.97
2018-11-12T06:54:49.837Z,24.37
2018-11-12T06:59:51.940Z,20.70
2018-11-12T07:04:54.060Z,21.57
2018-11-12T07:09:56.173Z,23.00
2018-11-12T07:14:58.254Z,21.97
2018-11-12T07:20:00.393Z,24.55
2018-11-12T07:25:02.588Z,25.10
2018-11-12T07:30:07.468Z,23.83
2018-11-12T07:35:11.199Z,23.00
2018-11-12T07:40:14.009Z,26.17
2018-11-12T07:45:17.529Z,24.03
2018-11-12T07:50:21.026Z,35.20
2018-11-12T07:55:24.463Z,26.13
2018-11-12T08:00:28.077Z,35.27
2018-11-12T08:05:30.208Z,38.13
2018-11-12T08:10:32.353Z,30.13
2018-11-12T08:15:34.509Z,36.83
2018-11-12T08:20:36.632Z,27.70
2018-11-12T08:25:38.740Z,25.43
2018-11-12T08:30:40.876Z,26.87
2018-11-12T08:35:42.971Z,24.60
2018-11-12T08:40:45.236Z,22.73
2018-11-12T08:45:47.282Z,25.07
2018-11-12T08:50:49.409Z,26.83
2018-11-12T08:55:51.529Z,26.50
2018-11-12T09:00:53.719Z,25.70
2018-11-12T09:05:55.786Z,25.63
2018-11-12T09:10:57.945Z,23.50
2018-11-12T09:16:00.087Z,27.20
2018-11-12T09:21:02.216Z,29.63
2018-11-12T09:26:04.502Z,24.23
2018-11-12T09:31:08.259Z,21.13
2018-11-12T09:36:08.710Z,24.20
2018-11-12T09:41:10.880Z,27.20
2018-11-12T09:46:13.052Z,26.20
2018-11-12T09:51:15.130Z,21.10
2018-11-12T09:56:17.231Z,19.33
2018-11-12T10:01:19.673Z,19.00
2018-11-12T10:06:23.206Z,17.77
2018-11-12T10:11:26.052Z,19.73
2018-11-12T10:16:29.192Z,18.00
2018-11-12T10:21:27.895Z,20.77
2018-11-12T10:26:30.037Z,20.50
2018-11-12T10:31:32.148Z,19.47
2018-11-12T10:36:34.298Z,21.03
2018-11-12T10:41:36.503Z,15.20
2018-11-12T10:46:39.551Z,16.07
2018-11-12T10:51:41.947Z,19.83
2018-11-12T10:56:44.115Z,21.47
2018-11-12T11:01:51.875Z,13.07
2018-11-12T11:06:54.113Z,16.10
2018-11-12T11:11:56.224Z,17.30
2018-11-12T11:16:58.335Z,11.07
2018-11-12T11:22:00.456Z,11.27
2018-11-12T11:27:02.583Z,15.03
2018-11-12T11:32:04.856Z,10.07
2018-11-12T11:37:06.957Z,12.80
2018-11-12T11:42:09.081Z,18.17
2018-11-12T11:47:11.236Z,8.40
2018-11-12T11:52:13.386Z,15.63
2018-11-12T11:57:15.779Z,10.17
2018-11-12T12:02:17.873Z,9.37
2018-11-12T12:07:19.979Z,12.90
2018-11-12T12:12:22.077Z,9.20
2018-11-12T12:17:24.214Z,9.07
2018-11-12T12:22:26.345Z,9.00
2018-11-12T12:27:28.479Z,8.97
2018-11-12T12:32:30.627Z,8.83
2018-11-12T12:37:32.799Z,9.83
2018-11-12T12:42:34.989Z,7.43
2018-11-12T12:47:37.162Z,7.70
2018-11-12T12:52:39.308Z,8.30
2018-11-12T12:57:43.626Z,9.33
2018-11-12T13:02:45.899Z,8.37
2018-11-12T13:07:48.022Z,5.57
2018-11-12T13:12:50.194Z,5.30
2018-11-12T13:17:52.546Z,6.30
2018-11-12T13:22:54.694Z,5.90
2018-11-12T13:27:56.844Z,4.83
2018-11-12T13:32:58.971Z,4.80
2018-11-12T13:38:01.071Z,4.87
2018-11-12T13:43:03.227Z,7.33
2018-11-12T13:48:05.398Z,5.37
2018-11-12T13:53:07.577Z,8.00
2018-11-12T13:58:09.685Z,5.80
2018-11-12T14:03:11.818Z,6.53
2018-11-12T14:08:14.217Z,7.90
2018-11-12T14:13:16.363Z,7.20
2018-11-12T14:18:18.492Z,7.33
2018-11-12T14:23:20.599Z,7.50
2018-11-12T14:28:23.060Z,6.90
2018-11-12T14:33:25.204Z,5.93
2018-11-12T14:38:27.319Z,6.33
2018-11-12T14:43:29.596Z,6.30
2018-11-12T14:48:31.764Z,7.03
2018-11-12T14:53:34.089Z,6.60
2018-11-12T14:58:36.242Z,5.27
2018-11-12T15:03:38.371Z,5.47
2018-11-12T15:08:40.534Z,6.40
2018-11-12T15:13:42.683Z,5.73
2018-11-12T15:18:44.807Z,6.33
2018-11-12T15:23:46.999Z,7.00
2018-11-12T15:28:49.185Z,6.10
2018-11-12T15:33:51.326Z,8.63
2018-11-12T15:38:53.451Z,7.10
2018-11-12T15:43:55.578Z,7.10
2018-11-12T15:48:57.748Z,7.40
2018-11-12T15:53:59.990Z,8.03
2018-11-12T15:59:02.159Z,7.87
2018-11-12T16:04:04.549Z,7.67
2018-11-12T16:09:09.349Z,8.43
2018-11-12T16:14:11.516Z,8.23
2018-11-12T16:19:13.741Z,7.80
2018-11-12T16:24:15.793Z,9.47
2018-11-12T16:29:17.963Z,8.20
2018-11-12T16:34:20.096Z,8.70
2018-11-12T16:39:22.232Z,10.27
2018-11-12T16:44:24.377Z,7.87
2018-11-12T16:49:26.565Z,8.53
2018-11-12T16:54:28.731Z,9.80
2018-11-12T16:59:30.871Z,8.50
2018-11-12T17:04:33.002Z,10.87
2018-11-12T17:09:35.157Z,11.77
2018-11-12T17:14:37.303Z,17.03
2018-11-12T17:19:39.482Z,12.70
2018-11-12T17:24:41.651Z,14.83
2018-11-12T17:29:43.780Z,15.27
2018-11-12T17:34:45.992Z,17.50
2018-11-12T17:39:48.166Z,13.70
2018-11-12T17:44:50.367Z,12.43
2018-11-12T17:49:52.591Z,16.50
2018-11-12T17:54:54.797Z,11.77
2018-11-12T17:59:56.989Z,10.73
2018-11-12T18:04:59.140Z,15.80
2018-11-12T18:10:01.317Z,13.97
2018-11-12T18:15:03.894Z,16.33
2018-11-12T18:20:09.748Z,17.80
2018-11-12T18:25:12.446Z,16.23
2018-11-12T18:30:24.240Z,15.50
2018-11-12T18:35:26.239Z,15.70
2018-11-12T18:40:29.247Z,16.90
2018-11-12T18:45:31.460Z,14.97
2018-11-12T18:50:33.630Z,17.80
2018-11-12T18:55:35.816Z,21.67
2018-11-12T19:00:37.980Z,21.50
2018-11-12T19:05:40.145Z,23.63
2018-11-12T19:10:42.343Z,26.10
2018-11-12T19:15:44.539Z,26.93
2018-11-12T19:20:46.775Z,41.33
2018-11-12T19:25:48.929Z,26.20
2018-11-12T19:30:51.935Z,29.20
2018-11-12T19:35:54.105Z,27.10
2018-11-12T19:40:56.339Z,28.80
2018-11-12T19:45:58.518Z,23.73
2018-11-12T19:51:00.802Z,23.30
2018-11-12T19:56:03.067Z,21.40
2018-11-12T20:01:05.485Z,24.17
2018-11-12T20:06:07.894Z,27.17
2018-11-12T20:11:10.417Z,31.60
2018-11-12T20:16:12.716Z,28.50
2018-11-12T20:21:15.172Z,24.03
2018-11-12T20:26:19.942Z,25.20
2018-11-12T20:31:24.239Z,21.20
2018-11-12T20:36:26.600Z,21.50
2018-11-12T20:41:29.556Z,23.03
2018-11-12T20:46:31.917Z,27.03
2018-11-12T20:51:34.381Z,24.17
2018-11-12T20:56:36.705Z,20.63
2018-11-12T21:01:39.200Z,20.10
2018-11-12T21:06:42.791Z,21.57
2018-11-12T21:11:45.075Z,24.57
2018-11-12T21:16:47.345Z,23.00
2018-11-12T21:21:50.166Z,23.87
2018-11-12T21:26:52.354Z,24.77
2018-11-12T21:31:54.517Z,23.30
2018-11-12T21:36:56.813Z,26.20
2018-11-12T21:41:59.019Z,27.63
2018-11-12T21:47:01.204Z,31.17
2018-11-12T21:52:03.473Z,27.95
2018-11-12T21:57:05.694Z,33.20
2018-11-12T22:02:07.843Z,29.10
2018-11-12T22:07:10.220Z,39.33
2018-11-12T22:12:12.368Z,49.63
2018-11-12T22:17:14.508Z,37.67
2018-11-12T22:22:16.641Z,29.60
2018-11-12T22:27:18.785Z,32.07
2018-11-12T22:32:21.306Z,30.20
2018-11-12T22:37:23.558Z,24.57
2018-11-12T22:42:25.690Z,38.63
2018-11-12T22:47:28.029Z,30.50
2018-11-12T22:52:30.193Z,26.70
2018-11-12T22:57:32.323Z,33.77
2018-11-12T23:02:34.463Z,24.63
2018-11-12T23:07:36.554Z,27.60
2018-11-12T23:12:38.752Z,23.07
2018-11-12T23:17:40.847Z,22.97
2018-11-12T23:22:43.735Z,25.50
2018-11-12T23:27:46.393Z,21.67
2018-11-12T23:32:48.836Z,22.17
2018-11-12T23:37:51.219Z,17.80
2018-11-12T23:42:53.377Z,20.27
2018-11-12T23:47:55.511Z,23.03
2018-11-12T23:52:57.849Z,26.55
2018-11-12T23:58:00.068Z,21.30
